createdAt,value
2024-04-19T00:00:28.373Z,99549.40
2024-04-19T00:04:10.548Z,99549.00
2024-04-19T00:06:48.541Z,99551.00
2024-04-19T00:09:32.709Z,99553.40
2024-04-19T00:12:40.151Z,99552.20
2024-04-19T00:15:40.525Z,99557.40
2024-04-19T00:18:41.402Z,99552.40
2024-04-19T00:21:58.105Z,99549.00
2024-04-19T00:25:05.104Z,99558.60
2024-04-19T00:28:09.543Z,99552.40
2024-04-19T00:31:00.168Z,99552.20
2024-04-19T00:33:31.857Z,99553.20
2024-04-19T00:36:24.328Z,99557.40
2024-04-19T00:39:13.411Z,99555.40
2024-04-19T00:41:44.243Z,99559.40
2024-04-19T00:44:17.596Z,99559.20
2024-04-19T00:46:58.806Z,99553.40
2024-04-19T00:49:35.679Z,99555.60
2024-04-19T00:52:26.478Z,99553.40
2024-04-19T00:55:00.728Z,99548.60
2024-04-19T00:57:47.401Z,99549.40
2024-04-19T01:00:27.446Z,99549.60
2024-04-19T01:02:57.512Z,99549.60
2024-04-19T01:05:49.181Z,99548.00
2024-04-19T01:08:55.659Z,99548.40
2024-04-19T01:11:35.319Z,99548.80
2024-04-19T01:14:31.690Z,99548.80
2024-04-19T01:17:20.287Z,99554.20
2024-04-19T01:19:56.728Z,99547.00
2024-04-19T01:22:47.843Z,99550.00
2024-04-19T01:25:43.146Z,99553.00
2024-04-19T01:32:27.178Z,99547.80
2024-04-19T01:35:48.545Z,99548.00
2024-04-19T01:38:45.386Z,99540.00
2024-04-19T01:41:38.242Z,99537.00
2024-04-19T01:44:29.054Z,99536.20
2024-04-19T01:47:23.794Z,99535.60
2024-04-19T01:50:01.770Z,99537.80
2024-04-19T01:52:43.496Z,99537.00
2024-04-19T01:55:28.187Z,99536.80
2024-04-19T01:58:52.618Z,99541.20
2024-04-19T02:01:43.821Z,99545.40
2024-04-19T02:04:57.168Z,99543.20
2024-04-19T02:07:39.668Z,99544.00
2024-04-19T02:10:28.978Z,99545.40
2024-04-19T02:13:57.728Z,99557.40
2024-04-19T02:16:58.326Z,99571.40
2024-04-19T02:20:19.118Z,99579.80
2024-04-19T02:23:25.334Z,99584.60
2024-04-19T02:26:23.109Z,99584.60
2024-04-19T02:29:29.778Z,99590.40
2024-04-19T02:32:11.917Z,99592.40
2024-04-19T02:34:48.486Z,99588.40
2024-04-19T02:37:52.947Z,99587.60
2024-04-19T02:41:03.385Z,99592.60
2024-04-19T02:44:09.174Z,99588.20
2024-04-19T02:47:12.777Z,99589.60
2024-04-19T02:49:50.239Z,99593.40
2024-04-19T02:52:49.839Z,99600.20
2024-04-19T02:56:25.559Z,99603.60
2024-04-19T02:59:30.160Z,99607.80
2024-04-19T03:03:00.853Z,99608.80
2024-04-19T03:05:41.418Z,99612.80
2024-04-19T03:09:13.021Z,99623.20
2024-04-19T03:12:05.820Z,99624.00
2024-04-19T03:15:07.016Z,99625.20
2024-04-19T03:18:32.914Z,99627.20
2024-04-19T03:21:20.139Z,99631.60
2024-04-19T03:24:22.550Z,99635.40
2024-04-19T03:27:01.007Z,99639.00
2024-04-19T03:29:58.830Z,99648.00
2024-04-19T03:32:58.441Z,99649.00
2024-04-19T03:35:55.134Z,99652.60
2024-04-19T03:38:43.654Z,99652.00
2024-04-19T03:41:25.388Z,99658.80
2024-04-19T03:45:02.136Z,99658.20
2024-04-19T03:48:18.484Z,99660.00
2024-04-19T03:51:20.220Z,99661.40
2024-04-19T03:54:40.398Z,99664.40
2024-04-19T03:57:28.759Z,99671.60
2024-04-19T04:00:06.890Z,99683.60
2024-04-19T04:02:44.067Z,99688.40
2024-04-19T04:05:38.506Z,99689.00
2024-04-19T04:08:12.955Z,99693.80
2024-04-19T04:10:42.566Z,99693.00
2024-04-19T04:13:13.909Z,99694.20
2024-04-19T04:15:45.727Z,99693.80
2024-04-19T04:18:18.994Z,99690.60
2024-04-19T04:20:52.807Z,99698.00
2024-04-19T04:23:46.716Z,99705.20
2024-04-19T04:26:17.662Z,99704.40
2024-04-19T04:29:05.479Z,99709.00
2024-04-19T04:31:36.873Z,99718.40
2024-04-19T04:34:05.191Z,99725.20
2024-04-19T04:36:55.556Z,99721.80
2024-04-19T04:39:32.661Z,99733.00
2024-04-19T04:42:00.724Z,99734.80
2024-04-19T04:44:34.252Z,99738.20
2024-04-19T04:47:22.226Z,99744.40
2024-04-19T04:49:58.362Z,99745.40
2024-04-19T04:52:28.166Z,99748.40
2024-04-19T04:54:56.374Z,99754.00
2024-04-19T04:57:36.148Z,99751.80
2024-04-19T05:00:08.052Z,99759.40
2024-04-19T05:02:39.065Z,99763.80
2024-04-19T05:05:10.045Z,99768.80
2024-04-19T05:07:38.216Z,99772.00
2024-04-19T05:10:07.184Z,99771.80
2024-04-19T05:12:41.240Z,99784.60
2024-04-19T05:15:09.464Z,99783.60
2024-04-19T05:17:38.066Z,99786.60
2024-04-19T05:20:07.369Z,99791.60
2024-04-19T05:22:38.980Z,99793.00
2024-04-19T05:25:09.059Z,99792.60
2024-04-19T05:27:40.078Z,99804.00
2024-04-19T05:30:08.781Z,99804.20
2024-04-19T05:32:43.438Z,99808.80
2024-04-19T05:35:14.804Z,99805.80
2024-04-19T05:37:45.369Z,99806.80
2024-04-19T05:40:13.569Z,99809.60
2024-04-19T05:42:42.027Z,99802.40
2024-04-19T05:45:20.046Z,99809.40
2024-04-19T05:47:48.900Z,99818.00
2024-04-19T05:50:17.326Z,99826.00
2024-04-19T05:52:48.106Z,99831.20
2024-04-19T05:55:19.592Z,99832.40
2024-04-19T05:57:47.969Z,99833.40
2024-04-19T06:00:21.754Z,99833.40
2024-04-19T06:02:49.787Z,99828.00
2024-04-19T06:05:20.576Z,99824.20
2024-04-19T06:07:49.338Z,99827.60
2024-04-19T06:10:18.269Z,99825.00
2024-04-19T06:12:56.082Z,99828.40
2024-04-19T06:15:24.195Z,99830.80
2024-04-19T06:17:52.567Z,99825.80
2024-04-19T06:20:20.653Z,99824.80
2024-04-19T06:22:48.566Z,99821.80
2024-04-19T06:25:24.040Z,99820.60
2024-04-19T06:27:52.203Z,99820.60
2024-04-19T06:30:20.180Z,99822.80
2024-04-19T06:32:48.839Z,99818.20
2024-04-19T06:35:19.390Z,99821.80
2024-04-19T06:37:49.706Z,99815.80
2024-04-19T06:40:18.012Z,99820.00
2024-04-19T06:42:47.452Z,99821.60
2024-04-19T06:45:18.153Z,99821.80
2024-04-19T06:47:46.801Z,99815.60
2024-04-19T06:50:15.267Z,99815.80
2024-04-19T06:52:43.560Z,99810.80
2024-04-19T06:55:12.114Z,99813.60
2024-04-19T06:57:40.374Z,99810.80
2024-04-19T07:00:21.763Z,99818.60
2024-04-19T07:03:21.371Z,99809.40
2024-04-19T07:05:51.427Z,99813.40
2024-04-19T07:08:20.065Z,99817.00
2024-04-19T07:11:01.798Z,99818.80
2024-04-19T07:13:33.361Z,99823.00
2024-04-19T07:16:32.346Z,99827.80
2024-04-19T07:19:00.822Z,99828.80
2024-04-19T07:21:32.367Z,99830.80
2024-04-19T07:24:00.758Z,99830.40
2024-04-19T07:26:29.824Z,99829.80
2024-04-19T07:29:20.695Z,99831.00
2024-04-19T07:31:48.892Z,99836.40
2024-04-19T07:34:17.084Z,99841.40
2024-04-19T07:36:50.703Z,99843.80
2024-04-19T07:39:18.990Z,99841.80
2024-04-19T07:41:47.170Z,99841.60
2024-04-19T07:44:15.213Z,99842.40
2024-04-19T07:46:50.814Z,99844.40
2024-04-19T07:49:19.199Z,99845.40
2024-04-19T07:51:50.819Z,99842.60
2024-04-19T07:54:19.580Z,99844.60
2024-04-19T07:57:34.306Z,99834.80
2024-04-19T08:00:16.917Z,99840.60
2024-04-19T08:02:48.324Z,99838.60
2024-04-19T08:05:24.972Z,99836.40
2024-04-19T08:07:57.220Z,99840.00
2024-04-19T08:10:31.662Z,99840.80
2024-04-19T08:13:09.131Z,99834.00
2024-04-19T08:15:39.835Z,99834.80
2024-04-19T08:18:16.367Z,99834.20
2024-04-19T08:20:44.667Z,99834.80
2024-04-19T08:23:17.957Z,99840.60
2024-04-19T08:25:49.627Z,99838.80
2024-04-19T08:28:26.470Z,99833.60
2024-04-19T08:30:54.746Z,99834.80
2024-04-19T08:33:29.073Z,99831.00
2024-04-19T08:35:58.476Z,99834.40
2024-04-19T08:38:32.220Z,99833.40
2024-04-19T08:41:09.815Z,99830.40
2024-04-19T08:43:43.566Z,99834.60
2024-04-19T08:46:20.518Z,99833.60
2024-04-19T08:49:15.820Z,99838.20
2024-04-19T08:52:29.716Z,99832.00
2024-04-19T08:55:10.134Z,99822.40
2024-04-19T08:57:54.837Z,99824.00
2024-04-19T09:00:29.002Z,99829.40
2024-04-19T09:03:10.714Z,99832.80
2024-04-19T09:05:59.966Z,99820.80
2024-04-19T09:09:11.359Z,99819.60
2024-04-19T09:11:55.249Z,99814.20
2024-04-19T09:14:30.895Z,99816.40
2024-04-19T09:17:20.786Z,99813.40
2024-04-19T09:20:04.820Z,99816.00
2024-04-19T09:22:58.502Z,99806.20
2024-04-19T09:25:47.278Z,99802.00
2024-04-19T09:28:24.480Z,99804.20
2024-04-19T09:31:12.395Z,99796.60
2024-04-19T09:33:45.967Z,99799.40
2024-04-19T09:36:38.930Z,99798.00
2024-04-19T09:40:13.104Z,99798.00
2024-04-19T09:42:56.001Z,99790.60
2024-04-19T09:45:52.660Z,99790.20
2024-04-19T09:48:43.157Z,99784.80
2024-04-19T09:51:45.424Z,99786.00
2024-04-19T09:54:15.072Z,99785.80
2024-04-19T09:57:33.085Z,99779.00
2024-04-19T10:00:26.238Z,99784.00
2024-04-19T10:03:10.625Z,99782.20
2024-04-19T10:06:10.228Z,99778.40
2024-04-19T10:09:09.759Z,99772.60
2024-04-19T10:11:39.019Z,99774.40
2024-04-19T10:14:19.853Z,99767.20
2024-04-19T10:16:55.280Z,99763.80
2024-04-19T10:19:27.743Z,99758.00
2024-04-19T10:22:03.659Z,99756.60
2024-04-19T10:25:14.854Z,99753.60
2024-04-19T10:27:55.223Z,99752.40
2024-04-19T10:30:53.939Z,99757.00
2024-04-19T10:33:36.856Z,99744.40
2024-04-19T10:36:17.273Z,99743.00
2024-04-19T10:38:48.250Z,99734.60
2024-04-19T10:41:24.481Z,99732.00
2024-04-19T10:44:05.791Z,99723.80
2024-04-19T10:46:34.183Z,99718.20
2024-04-19T10:49:17.606Z,99715.40
2024-04-19T10:51:49.534Z,99717.80
2024-04-19T10:54:28.685Z,99715.60
2024-04-19T10:57:00.591Z,99704.00
2024-04-19T10:59:28.848Z,99706.00
2024-04-19T11:02:02.908Z,99708.00
2024-04-19T11:04:57.535Z,99698.60
2024-04-19T11:08:05.162Z,99696.40
2024-04-19T11:11:23.535Z,99693.20
2024-04-19T11:14:27.641Z,99693.40
2024-04-19T11:17:25.366Z,99690.40
2024-04-19T11:20:22.543Z,99686.60
2024-04-19T11:23:22.730Z,99685.80
2024-04-19T11:25:59.745Z,99684.80
2024-04-19T11:28:30.198Z,99685.00
2024-04-19T11:31:17.566Z,99687.20
2024-04-19T11:33:45.883Z,99677.60
2024-04-19T11:36:15.918Z,99679.00
2024-04-19T11:38:44.137Z,99676.40
2024-04-19T11:41:14.834Z,99678.60
2024-04-19T11:43:46.906Z,99680.60
2024-04-19T11:46:33.005Z,99679.20
2024-04-19T11:49:07.389Z,99679.20
2024-04-19T11:51:36.084Z,99679.00
2024-04-19T11:54:04.600Z,99679.20
2024-04-19T11:56:35.196Z,99673.40
2024-04-19T11:59:07.501Z,99671.40
2024-04-19T12:01:35.537Z,99668.80
2024-04-19T12:04:06.715Z,99668.60
2024-04-19T12:06:45.011Z,99668.80
2024-04-19T12:09:13.994Z,99666.80
2024-04-19T12:12:06.173Z,99662.40
2024-04-19T12:15:23.522Z,99656.20
2024-04-19T12:17:40.083Z,99653.60
2024-04-19T12:20:36.923Z,99654.60
2024-04-19T12:24:07.721Z,99652.40
2024-04-19T12:26:37.363Z,99643.80
2024-04-19T12:29:10.057Z,99644.20
2024-04-19T12:31:50.329Z,99646.00
2024-04-19T12:34:18.991Z,99642.40
2024-04-19T12:36:49.483Z,99638.60
2024-04-19T12:39:17.737Z,99634.60
2024-04-19T12:41:45.553Z,99630.60
2024-04-19T12:44:14.126Z,99628.80
2024-04-19T12:46:43.107Z,99633.80
2024-04-19T12:49:14.717Z,99631.80
2024-04-19T12:51:45.979Z,99634.00
2024-04-19T12:54:24.236Z,99634.40
2024-04-19T12:56:52.581Z,99633.20
2024-04-19T12:59:21.180Z,99631.20
2024-04-19T13:01:51.179Z,99631.00
2024-04-19T13:04:21.313Z,99634.60
2024-04-19T13:06:50.517Z,99634.20
2024-04-19T13:09:20.352Z,99634.40
2024-04-19T13:11:48.465Z,99632.60
2024-04-19T13:14:16.866Z,99631.40
2024-04-19T13:16:45.173Z,99627.40
2024-04-19T13:19:13.234Z,99626.00
2024-04-19T13:21:41.281Z,99628.80
2024-04-19T13:24:09.965Z,99629.40
2024-04-19T13:26:38.011Z,99630.20
2024-04-19T13:29:06.195Z,99630.60
2024-04-19T13:31:41.977Z,99624.00
2024-04-19T13:34:11.290Z,99619.00
2024-04-19T13:36:42.687Z,99613.00
2024-04-19T13:39:10.631Z,99616.80
2024-04-19T13:41:39.970Z,99611.20
2024-04-19T13:44:09.777Z,99603.20
2024-04-19T13:46:38.092Z,99600.40
2024-04-19T13:49:09.020Z,99596.80
2024-04-19T13:51:37.746Z,99589.80
2024-04-19T13:54:06.420Z,99591.00
2024-04-19T13:56:35.063Z,99588.00
2024-04-19T13:59:04.803Z,99585.60
2024-04-19T14:01:35.600Z,99579.80
2024-04-19T14:04:04.334Z,99583.60
2024-04-19T14:06:32.565Z,99582.40
2024-04-19T14:09:00.914Z,99582.20
2024-04-19T14:11:29.408Z,99574.40
2024-04-19T14:13:57.643Z,99577.40
2024-04-19T14:16:27.079Z,99571.00
2024-04-19T14:18:55.566Z,99567.20
2024-04-19T14:21:23.977Z,99570.60
2024-04-19T14:23:52.358Z,99568.00
2024-04-19T14:26:21.936Z,99571.80
2024-04-19T14:28:51.090Z,99564.60
2024-04-19T14:31:19.302Z,99562.80
2024-04-19T14:33:47.745Z,99559.60
2024-04-19T14:36:16.093Z,99554.40
2024-04-19T14:38:44.284Z,99560.60
2024-04-19T14:41:15.319Z,99560.00
2024-04-19T14:43:43.460Z,99553.00
2024-04-19T14:46:12.297Z,99546.80
2024-04-19T14:48:41.017Z,99540.00
2024-04-19T14:51:09.284Z,99543.80
2024-04-19T14:53:37.420Z,99533.40
2024-04-19T14:56:05.855Z,99532.80
2024-04-19T14:58:33.930Z,99529.60
2024-04-19T15:01:10.681Z,99524.80
2024-04-19T15:03:39.002Z,99525.20
2024-04-19T15:06:09.126Z,99521.60
2024-04-19T15:08:37.323Z,99518.80
2024-04-19T15:11:05.727Z,99523.00
2024-04-19T15:13:38.926Z,99523.80
2024-04-19T15:16:07.553Z,99518.60
2024-04-19T15:18:38.328Z,99518.80
2024-04-19T15:21:28.351Z,99518.00
2024-04-19T15:23:56.427Z,99514.20
2024-04-19T15:26:24.563Z,99518.80
2024-04-19T15:28:52.682Z,99508.80
2024-04-19T15:31:24.595Z,99503.00
2024-04-19T15:33:53.533Z,99510.60
2024-04-19T15:36:23.004Z,99513.40
2024-04-19T15:38:56.169Z,99512.00
2024-04-19T15:41:31.186Z,99507.20
2024-04-19T15:44:07.935Z,99504.00
2024-04-19T15:49:52.390Z,99499.40
2024-04-19T15:52:22.265Z,99501.40
2024-04-19T15:54:57.845Z,99500.00
2024-04-19T15:57:31.922Z,99502.60
2024-04-19T16:00:00.311Z,99505.60
2024-04-19T16:02:36.551Z,99499.40
2024-04-19T16:05:05.191Z,99499.40
2024-04-19T16:07:33.614Z,99499.20
2024-04-19T16:10:02.395Z,99499.20
2024-04-19T16:12:30.830Z,99494.00
2024-04-19T16:15:13.423Z,99497.00
2024-04-19T16:17:41.775Z,99497.80
2024-04-19T16:20:12.330Z,99494.20
2024-04-19T16:22:41.873Z,99493.20
2024-04-19T16:25:10.048Z,99492.00
2024-04-19T16:27:45.828Z,99491.40
2024-04-19T16:30:16.300Z,99492.00
2024-04-19T16:33:06.775Z,99491.40
2024-04-19T16:35:39.394Z,99493.00
2024-04-19T16:38:12.801Z,99489.40
2024-04-19T16:40:41.059Z,99499.00
2024-04-19T16:43:19.756Z,99496.60
2024-04-19T16:45:53.610Z,99498.80
2024-04-19T16:48:26.358Z,99505.20
2024-04-19T16:50:56.464Z,99505.20
2024-04-19T16:53:38.187Z,99509.20
2024-04-19T16:56:08.996Z,99508.00
2024-04-19T16:58:47.526Z,99506.00
2024-04-19T17:01:23.735Z,99507.20
2024-04-19T17:04:12.883Z,99509.60
2024-04-19T17:06:55.834Z,99509.60
2024-04-19T17:09:43.019Z,99509.60
2024-04-19T17:12:11.575Z,99511.60
2024-04-19T17:14:42.236Z,99512.00
2024-04-19T17:17:13.855Z,99513.00
2024-04-19T17:19:53.861Z,99516.60
2024-04-19T17:22:21.982Z,99521.80
2024-04-19T17:24:50.613Z,99525.80
2024-04-19T17:27:18.965Z,99532.00
2024-04-19T17:29:59.993Z,99540.40
2024-04-19T17:32:28.518Z,99542.60
2024-04-19T17:35:00.595Z,99547.80
2024-04-19T17:37:30.726Z,99548.20
2024-04-19T17:40:04.774Z,99547.20
2024-04-19T17:42:33.200Z,99547.20
2024-04-19T17:45:01.118Z,99547.00
2024-04-19T17:47:31.960Z,99552.00
2024-04-19T17:50:00.551Z,99562.20
2024-04-19T17:52:30.738Z,99567.00
2024-04-19T17:54:58.884Z,99567.60
2024-04-19T17:57:36.076Z,99570.60
2024-04-19T18:00:06.492Z,99574.40
2024-04-19T18:02:46.290Z,99575.80
2024-04-19T18:05:24.214Z,99573.20
2024-04-19T18:07:53.292Z,99575.40
2024-04-19T18:10:24.913Z,99581.40
2024-04-19T18:12:53.973Z,99580.40
2024-04-19T18:15:32.646Z,99580.80
2024-04-19T18:18:04.247Z,99586.40
2024-04-19T18:20:42.649Z,99591.60
2024-04-19T18:23:14.005Z,99595.20
2024-04-19T18:25:43.658Z,99596.40
2024-04-19T18:28:11.692Z,99595.40
2024-04-19T18:30:41.891Z,99597.20
2024-04-19T18:33:14.658Z,99601.40
2024-04-19T18:35:44.909Z,99601.00
2024-04-19T18:38:19.120Z,99602.80
2024-04-19T18:40:49.130Z,99603.00
2024-04-19T18:43:19.893Z,99598.20
2024-04-19T18:45:47.993Z,99599.40
2024-04-19T18:48:16.554Z,99602.20
2024-04-19T18:50:53.692Z,99603.00
2024-04-19T18:53:22.326Z,99610.60
2024-04-19T18:56:02.048Z,99604.80
2024-04-19T18:58:33.027Z,99606.60
2024-04-19T19:01:12.849Z,99610.40
2024-04-19T19:03:47.699Z,99608.20
2024-04-19T19:06:17.162Z,99607.20
2024-04-19T19:09:06.951Z,99607.40
2024-04-19T19:11:39.171Z,99608.40
2024-04-19T19:14:12.799Z,99609.20
2024-04-19T19:16:43.499Z,99606.80
2024-04-19T19:19:20.396Z,99603.20
2024-04-19T19:21:48.473Z,99603.60
2024-04-19T19:24:32.338Z,99603.00
2024-04-19T19:27:02.578Z,99601.00
2024-04-19T19:29:33.219Z,99594.40
2024-04-19T19:32:01.237Z,99593.20
2024-04-19T19:35:06.446Z,99590.80
2024-04-19T19:37:40.671Z,99592.40
2024-04-19T19:40:29.370Z,99591.40
2024-04-19T19:42:57.479Z,99595.20
2024-04-19T19:45:25.910Z,99595.20
2024-04-19T19:47:54.106Z,99592.40
2024-04-19T19:50:40.211Z,99592.40
2024-04-19T19:53:08.376Z,99592.40
2024-04-19T19:55:36.161Z,99589.60
2024-04-19T19:58:04.236Z,99590.00
2024-04-19T20:00:54.097Z,99583.80
2024-04-19T20:03:40.880Z,99582.20
2024-04-19T20:06:09.115Z,99582.00
2024-04-19T20:08:39.465Z,99585.80
2024-04-19T20:11:15.421Z,99580.40
2024-04-19T20:13:46.591Z,99580.80
2024-04-19T20:16:17.661Z,99581.80
2024-04-19T20:18:46.425Z,99582.60
2024-04-19T20:21:16.945Z,99582.20
2024-04-19T20:23:48.032Z,99579.00
2024-04-19T20:26:18.166Z,99581.80
2024-04-19T20:28:48.772Z,99583.80
2024-04-19T20:31:16.870Z,99588.00
2024-04-19T20:34:06.559Z,99584.00
2024-04-19T20:36:35.344Z,99580.40
2024-04-19T20:39:18.507Z,99577.80
2024-04-19T20:42:07.256Z,99573.80
2024-04-19T20:44:35.864Z,99574.20
2024-04-19T20:47:14.103Z,99563.60
2024-04-19T20:49:45.067Z,99557.80
2024-04-19T20:52:16.464Z,99557.20
2024-04-19T20:54:44.676Z,99559.80
2024-04-19T20:57:12.860Z,99559.80
2024-04-19T20:59:50.673Z,99555.80
2024-04-19T21:02:45.841Z,99547.60
2024-04-19T21:05:14.314Z,99548.20
2024-04-19T21:07:55.727Z,99549.00
2024-04-19T21:10:28.489Z,99547.60
2024-04-19T21:12:56.983Z,99543.00
2024-04-19T21:15:29.131Z,99550.00
2024-04-19T21:17:57.289Z,99543.20
2024-04-19T21:20:26.215Z,99541.80
2024-04-19T21:22:57.466Z,99537.00
2024-04-19T21:25:25.706Z,99532.40
2024-04-19T21:27:53.799Z,99534.80
2024-04-19T21:30:22.257Z,99533.80
2024-04-19T21:33:18.016Z,99531.40
2024-04-19T21:35:49.921Z,99531.80
2024-04-19T21:38:17.984Z,99537.20
2024-04-19T21:40:46.341Z,99530.60
2024-04-19T21:43:23.393Z,99523.80
2024-04-19T21:45:51.754Z,99525.80
2024-04-19T21:48:20.286Z,99526.20
2024-04-19T21:50:49.434Z,99521.40
2024-04-19T21:53:17.739Z,99519.60
2024-04-19T21:56:08.445Z,99515.40
2024-04-19T21:58:38.974Z,99516.00
2024-04-19T22:01:10.443Z,99511.40
2024-04-19T22:03:41.211Z,99514.60
2024-04-19T22:06:13.100Z,99510.20
2024-04-19T22:08:41.708Z,99512.00
2024-04-19T22:11:09.980Z,99507.20
2024-04-19T22:13:39.831Z,99503.60
2024-04-19T22:16:11.085Z,99509.60
2024-04-19T22:18:39.283Z,99503.20
2024-04-19T22:21:12.078Z,99503.00
2024-04-19T22:23:41.992Z,99510.40
2024-04-19T22:26:13.533Z,99504.80
2024-04-19T22:28:41.794Z,99505.40
2024-04-19T22:31:11.481Z,99505.80
2024-04-19T22:33:47.101Z,99506.20
2024-04-19T22:36:17.414Z,99505.00
2024-04-19T22:38:45.643Z,99506.40
2024-04-19T22:41:13.839Z,99503.60
2024-04-19T22:43:53.105Z,99505.20
2024-04-19T22:46:21.213Z,99502.60
2024-04-19T22:48:49.828Z,99509.00
2024-04-19T22:51:18.050Z,99517.20
2024-04-19T22:53:47.060Z,99522.20
2024-04-19T22:56:15.247Z,99513.60
2024-04-19T22:58:44.085Z,99512.80
2024-04-19T23:01:14.302Z,99510.40
2024-04-19T23:03:45.646Z,99504.20
2024-04-19T23:06:14.305Z,99508.20
2024-04-19T23:08:42.454Z,99505.20
2024-04-19T23:11:10.663Z,99505.00
2024-04-19T23:13:59.374Z,99507.80
2024-04-19T23:16:28.561Z,99504.20
2024-04-19T23:18:58.385Z,99495.80
2024-04-19T23:21:30.023Z,99492.00
2024-04-19T23:24:00.669Z,99488.20
2024-04-19T23:26:28.990Z,99492.40
2024-04-19T23:29:04.424Z,99490.20
2024-04-19T23:31:35.468Z,99483.20
2024-04-19T23:34:03.718Z,99487.60
2024-04-19T23:36:39.779Z,99482.40
2024-04-19T23:39:18.080Z,99480.00
2024-04-19T23:41:46.430Z,99483.00
2024-04-19T23:44:21.119Z,99481.80
2024-04-19T23:46:49.452Z,99487.40
2024-04-19T23:49:17.695Z,99482.20
2024-04-19T23:51:45.810Z,99496.20
2024-04-19T23:54:18.957Z,99491.60
2024-04-19T23:56:47.433Z,99500.60
2024-04-19T23:59:20.794Z,99494.20
